Latest Weather Observations for Hopetoun Airport

IDV60801

Issued at 7:42 pm EDT Monday 27 January 2020 (issued every 10 minutes, with the page automatically refreshed every 10 minutes)

About weather observations | Map of weather stations | Latest weather observations for VIC | Other Formats
Station Details ID: 077010 Name: HOPETOUN AIRPORT Lat: -35.72 Lon: 142.36 Height: 77.3 m
Data from the previous 72 hours. | See also: Recent months at Hopetoun Airport
Date/Time
EDT
Temp
°C
App
Temp
°C
Dew
Point
°C
Rel
Hum
%
Delta-T
°C
Wind Press
QNH
hPa
Press
MSL
hPa
Rain since
9am
mm
Dir  Spd
km/h
Gust
km/h
Spd
kts
Gust
kts
27/07:30pm 30.2 24.6 -0.2 14 14.5 SW 19 26 10 14 1012.4 1012.1 0.0
27/07:00pm 30.9 26.0 -0.7 13 15.1 SSW 15 22 8 12 1012.3 1012.0 0.0
27/06:30pm 31.0 25.7 -0.6 13 15.1 SW 17 26 9 14 1012.2 1011.9 0.0
27/06:00pm 31.2 25.9 -0.5 13 15.2 SW 17 26 9 14 1012.4 1012.1 0.0
27/05:30pm 31.9 27.5 -2.2 11 15.9 W 11 22 6 12 1012.3 1012.0 0.0
27/05:00pm 30.7 26.7 -1.9 12 15.2 SW 9 26 5 14 1012.7 1012.4 0.0
27/04:30pm 31.0 26.9 2.3 16 14.4 W 13 19 7 10 1012.8 1012.5 0.0
27/04:00pm 29.4 26.3 3.4 19 13.2 S 9 20 5 11 1013.1 1012.8 0.0
27/03:30pm 29.5 25.6 3.5 19 13.2 SSW 13 24 7 13 1013.5 1013.2 0.0
27/03:00pm 28.5 24.8 4.7 22 12.2 SW 13 22 7 12 1013.9 1013.6 0.0
27/02:30pm 28.1 24.0 4.4 22 12.1 WSW 15 22 8 12 1014.1 1013.8 0.0
27/02:00pm 27.4 23.3 4.5 23 11.7 SW 15 26 8 14 1014.7 1014.4 0.0
27/01:30pm 26.9 24.0 6.3 27 10.8 SSW 11 19 6 10 1014.6 1014.3 0.0
27/01:00pm 26.2 22.8 7.7 31 9.9 SW 15 26 8 14 1015.2 1014.9 0.0
27/12:30pm 26.9 22.8 7.9 30 10.2 SW 19 32 10 17 1015.4 1015.1 0.0
27/12:00pm 25.2 23.6 8.7 35 8.9 WSW 7 13 4 7 1015.2 1014.9 0.0
27/11:30am 23.8 22.4 9.4 40 7.8 SW 7 15 4 8 1015.5 1015.2 0.0
27/11:00am 22.5 21.0 10.6 47 6.6 WSW 9 15 5 8 1015.9 1015.6 0.0
27/10:30am 21.6 20.1 10.7 50 6.0 SSW 9 13 5 7 1015.9 1015.6 0.0
27/10:00am 21.0 18.7 10.5 51 5.7 SSW 13 19 7 10 1015.9 1015.6 0.0
27/09:30am 19.9 18.4 10.6 55 5.1 SSE 9 15 5 8 1015.4 1015.1 0.0
27/09:00am 18.2 15.5 10.3 60 4.2 SSE 15 20 8 11 1015.5 1015.2 0.0
27/08:30am 16.4 13.3 10.3 67 3.2 S 17 22 9 12 1015.6 1015.3 0.0
27/08:00am 14.4 11.6 10.0 75 2.3 S 15 22 8 12 1015.3 1015.0 0.0
27/07:30am 12.4 10.6 9.4 82 1.5 SSW 9 15 5 8 1015.4 1015.1 0.0
27/07:00am 11.0 9.8 8.1 82 1.4 SSW 4 7 2 4 1015.0 1014.7 0.0
27/06:30am 11.9 9.5 8.6 80 1.6 S 11 17 6 9 1014.6 1014.3 0.0
27/06:00am 12.5 9.5 9.1 80 1.7 S 15 20 8 11 1014.2 1013.9 0.0
27/05:30am 12.4 10.1 9.1 80 1.7 S 11 15 6 8 1014.1 1013.8 0.0
27/05:00am 13.0 11.1 9.1 77 2.0 S 9 13 5 7 1014.2 1013.9 0.0
27/04:30am 13.1 11.2 9.0 76 2.1 SSW 9 11 5 6 1014.2 1013.9 0.0
27/04:00am 14.0 12.6 9.4 74 2.4 S 7 11 4 6 1014.3 1014.0 0.0
27/03:30am 15.0 12.9 9.8 71 2.7 S 11 15 6 8 1014.2 1013.9 0.0
27/03:00am 14.9 13.2 9.7 71 2.7 SSW 9 13 5 7 1014.4 1014.1 0.0
27/02:30am 14.7 12.8 8.9 68 3.0 SSW 9 11 5 6 1014.6 1014.3 0.0
27/02:00am 16.4 14.3 9.8 65 3.5 SSW 11 15 6 8 1014.7 1014.4 0.0
27/01:30am 17.3 15.1 9.5 60 4.1 S 11 17 6 9 1014.7 1014.4 0.0
27/01:00am 18.1 15.7 8.7 54 4.9 S 11 15 6 8 1014.9 1014.6 0.0
27/12:30am 18.6 16.6 8.8 53 5.1 S 9 13 5 7 1014.9 1014.6 0.0
27/12:00am 19.0 16.9 8.4 50 5.5 SSW 9 11 5 6 1015.0 1014.7 0.0
 
Date/Time
EDT
Temp
°C
App
Temp
°C
Dew
Point
°C
Rel
Hum
%
Delta-T
°C
Wind Press
QNH
hPa
Press
MSL
hPa
Rain since
9am
mm
Dir  Spd
km/h
Gust
km/h
Spd
kts
Gust
kts
26/11:30pm 19.8 17.8 8.5 48 5.9 SSW 9 13 5 7 1015.1 1014.8 0.0
26/11:00pm 20.9 18.6 8.9 46 6.4 SSW 11 15 6 8 1015.0 1014.7 0.0
26/10:30pm 22.3 19.3 9.1 43 7.1 SSW 15 19 8 10 1014.7 1014.4 0.0
26/10:00pm 23.4 20.3 8.7 39 7.9 SW 15 19 8 10 1014.3 1014.0 0.0
26/09:30pm 24.3 21.4 8.3 36 8.6 SSW 13 17 7 9 1013.9 1013.6 0.0
26/09:00pm 25.8 22.2 8.3 33 9.4 SW 17 24 9 13 1013.7 1013.4 0.0
26/08:30pm 27.5 23.6 9.3 32 10.1 SW 20 28 11 15 1013.2 1012.9 0.0
26/08:00pm 28.6 24.4 8.3 28 11.1 SW 20 24 11 13 1012.9 1012.6 0.0
26/07:30pm 29.0 25.0 8.1 27 11.4 SW 19 26 10 14 1012.6 1012.3 0.0
26/07:00pm 29.8 25.9 8.8 27 11.7 SW 19 26 10 14 1012.3 1012.0 0.0
26/06:30pm 30.2 25.8 9.1 27 11.8 SW 22 32 12 17 1012.3 1012.0 0.0
26/06:00pm 30.0 26.3 10.0 29 11.3 SW 20 32 11 17 1012.4 1012.1 0.0
26/05:30pm 30.7 27.7 10.6 29 11.5 SSW 17 30 9 16 1012.3 1012.0 0.0
26/05:00pm 31.4 27.8 10.7 28 11.9 SW 20 37 11 20 1012.4 1012.1 0.0
26/04:30pm 30.9 28.3 10.8 29 11.6 WSW 15 30 8 16 1012.7 1012.4 0.0
26/04:00pm 32.2 28.2 9.1 24 13.0 WSW 20 33 11 18 1012.8 1012.5 0.0
26/03:30pm 31.1 26.1 11.0 29 11.6 WSW 28 37 15 20 1013.0 1012.7 0.0
26/03:00pm 31.0 27.5 13.3 34 10.6 SW 24 44 13 24 1013.2 1012.9 0.0
26/02:30pm 30.0 26.5 13.3 36 10.0 SW 24 44 13 24 1013.4 1013.1 0.0
26/02:00pm 30.1 26.2 13.4 36 10.0 SW 26 37 14 20 1013.7 1013.4 0.0
26/01:30pm 29.5 26.5 13.7 38 9.5 WSW 22 35 12 19 1013.9 1013.6 0.0
26/01:00pm 28.6 26.0 13.3 39 9.1 WSW 19 32 10 17 1014.3 1014.0 0.0
26/12:30pm 27.0 25.3 13.7 44 7.9 W 15 28 8 15 1014.6 1014.3 0.0
26/12:00pm 26.0 24.8 14.1 47 7.1 W 13 22 7 12 1014.9 1014.6 0.0
26/11:30am 25.0 23.6 14.5 52 6.3 WSW 15 22 8 12 1015.2 1014.9 0.0
26/11:00am 23.5 22.2 14.8 58 5.2 WSW 15 22 8 12 1015.3 1015.0 0.0
26/10:30am 21.9 20.9 14.5 63 4.4 SW 13 19 7 10 1015.5 1015.2 0.0
26/10:00am 21.0 19.7 14.9 68 3.6 SW 15 20 8 11 1015.6 1015.3 0.0
26/09:30am 19.2 18.8 15.3 78 2.3 SW 11 15 6 8 1015.4 1015.1 0.0
26/09:00am 17.3 16.9 15.1 87 1.3 SSW 11 15 6 8 1015.6 1015.3 0.0
26/08:30am 15.6 13.4 14.3 92 0.7 SW 19 26 10 14 1015.3 1015.0 0.0
26/08:00am 16.1 13.5 13.8 86 1.3 SSW 20 26 11 14 1015.1 1014.8 0.0
26/07:30am 16.0 14.7 13.8 87 1.2 SSW 13 19 7 10 1014.5 1014.2 0.0
26/07:00am 14.5 14.1 12.9 90 0.9 SSW 7 9 4 5 1014.0 1013.7 0.0
26/06:30am 14.0 13.3 11.9 87 1.1 SSW 7 15 4 8 1013.8 1013.5 0.0
26/06:00am 14.6 14.0 12.3 86 1.3 SSW 7 9 4 5 1013.1 1012.8 0.0
26/05:30am 15.2 13.6 12.7 85 1.4 SSW 13 15 7 8 1013.2 1012.9 0.0
26/05:00am 15.1 14.1 12.2 83 1.6 SW 9 13 5 7 1013.1 1012.8 0.0
26/04:30am 15.4 14.4 12.2 81 1.8 SW 9 9 5 5 1013.2 1012.9 0.0
26/04:00am 15.8 15.1 12.0 78 2.1 SW 7 9 4 5 1013.4 1013.1 0.0
26/03:30am 16.6 15.6 12.4 76 2.3 SW 9 11 5 6 1013.5 1013.2 0.0
26/03:00am 17.3 17.4 12.6 74 2.6 SSW 4 7 2 4 1013.7 1013.4 0.0
26/02:30am 18.2 17.0 12.9 71 3.0 SW 11 15 6 8 1013.7 1013.4 0.0
26/02:00am 18.7 16.8 12.9 69 3.3 SW 15 19 8 10 1013.7 1013.4 0.0
26/01:30am 18.8 17.1 12.5 67 3.5 SW 13 15 7 8 1013.7 1013.4 0.0
26/01:00am 19.5 18.2 12.5 64 3.9 SSW 11 13 6 7 1013.6 1013.3 0.0
26/12:30am 20.0 18.7 12.5 62 4.2 SSW 11 15 6 8 1013.5 1013.2 0.0
26/12:00am 20.9 18.9 12.6 59 4.7 SSW 15 19 8 10 1013.4 1013.1 0.0
 
Date/Time
EDT
Temp
°C
App
Temp
°C
Dew
Point
°C
Rel
Hum
%
Delta-T
°C
Wind Press
QNH
hPa
Press
MSL
hPa
Rain since
9am
mm
Dir  Spd
km/h
Gust
km/h
Spd
kts
Gust
kts
25/11:30pm 21.9 19.1 12.5 55 5.3 SSW 19 24 10 13 1013.4 1013.1 0.0
25/11:00pm 22.3 19.6 11.7 51 6.0 SSW 17 20 9 11 1013.5 1013.2 0.0
25/10:30pm 23.1 20.2 10.9 46 6.8 SSW 17 19 9 10 1013.2 1012.9 0.0
25/10:00pm 23.1 21.6 9.1 41 7.5 SSW 7 9 4 5 1013.0 1012.7 0.0
25/09:30pm 24.2 22.3 9.0 38 8.2 SSW 9 11 5 6 1012.7 1012.4 0.0
25/09:00pm 26.0 24.1 8.9 34 9.3 SSW 9 13 5 7 1012.5 1012.2 0.0
25/08:30pm 27.5 24.0 8.9 31 10.2 SW 17 20 9 11 1012.1 1011.8 0.0
25/08:00pm 28.6 25.4 8.3 28 11.1 SSW 15 22 8 12 1011.9 1011.6 0.0
25/07:30pm 29.4 25.7 7.9 26 11.7 SSW 17 24 9 13 1011.6 1011.3 0.0
25/07:00pm 29.8 26.2 8.2 26 11.9 SW 17 28 9 15 1011.5 1011.1 0.0
25/06:30pm 30.1 26.4 7.9 25 12.2 WSW 17 28 9 15 1011.5 1011.1 0.0
25/06:00pm 30.5 27.3 8.3 25 12.3 SW 15 28 8 15 1011.5 1011.1 0.0
25/05:30pm 29.6 25.8 7.5 25 12.0 WSW 17 30 9 16 1011.9 1011.6 0.0
25/05:00pm 29.2 26.7 8.3 27 11.5 SW 11 22 6 12 1011.9 1011.6 0.0
25/04:30pm 30.2 27.4 8.6 26 12.0 SW 13 30 7 16 1012.1 1011.8 0.0
25/04:00pm 29.6 25.9 8.1 26 11.8 SW 17 32 9 17 1012.4 1012.1 0.0
25/03:30pm 28.6 25.4 8.3 28 11.1 SW 15 24 8 13 1012.8 1012.5 0.0
25/03:00pm 28.7 24.5 8.4 28 11.1 SW 20 35 11 19 1013.1 1012.8 0.0
25/02:30pm 28.5 25.7 8.7 29 10.9 SW 13 30 7 16 1013.5 1013.2 0.0
25/02:00pm 27.0 23.4 8.4 31 10.1 WSW 17 32 9 17 1013.9 1013.6 0.0
25/01:30pm 26.7 24.0 9.1 33 9.7 WSW 13 22 7 12 1014.3 1014.0 0.0
25/01:00pm 25.4 22.7 8.8 35 9.0 WNW 13 22 7 12 1014.6 1014.3 0.0
25/12:30pm 25.1 22.9 9.4 37 8.6 SW 11 22 6 12 1015.2 1014.9 0.0
25/12:00pm 24.5 21.1 9.3 38 8.3 WSW 17 28 9 15 1015.4 1015.1 0.0
25/11:30am 23.7 20.2 8.9 39 8.0 WNW 17 26 9 14 1015.4 1015.1 0.0
25/11:00am 22.3 19.6 9.1 43 7.1 W 13 19 7 10 1015.5 1015.2 0.0
25/10:30am 21.7 19.2 9.6 46 6.5 WSW 13 19 7 10 1015.8 1015.5 0.0
25/10:00am 21.4 19.9 10.6 50 5.9 SW 9 17 5 9 1015.9 1015.6 0.0
25/09:30am 20.1 19.0 10.8 55 5.1 SSW 7 11 4 6 1016.0 1015.7 0.0
25/09:00am 18.4 17.8 10.3 59 4.3 SSW 4 9 2 5 1016.1 1015.8 0.0
25/08:30am 16.1 15.3 9.8 66 3.3 WSW 4 6 2 3 1016.1 1015.8 0.0
25/08:00am 14.0 13.1 9.2 73 2.5 W 4 6 2 3 1015.8 1015.5 0.0
25/07:30am 11.2 9.7 6.9 75 2.1 WSW 4 4 2 2 1015.6 1015.3 0.0
25/07:00am 9.3 7.4 4.9 74 2.0 WNW 4 6 2 3 1015.3 1015.0 0.0
25/06:30am 9.1 7.2 4.7 74 2.0 WNW 4 4 2 2 1015.1 1014.8 0.0
25/06:00am 9.7 8.3 5.3 74 2.0 N 2 2 1 1 1015.0 1014.7 0.0
25/05:30am 9.0 7.0 4.2 72 2.1 N 4 6 2 3 1015.0 1014.7 0.0
25/05:00am 9.7 8.2 4.9 72 2.2 NE 2 4 1 2 1014.9 1014.6 0.0
25/04:30am 9.6 7.6 4.4 70 2.3 NW 4 4 2 2 1015.1 1014.8 0.0
25/04:00am 10.4 8.5 5.0 69 2.5 W 4 4 2 2 1015.1 1014.8 0.0
25/03:30am 10.8 8.9 5.1 68 2.6 W 4 6 2 3 1015.3 1015.0 0.0
25/03:00am 12.0 10.8 6.3 68 2.7 S 2 4 1 2 1015.3 1015.0 0.0
25/02:30am 13.5 11.7 7.3 66 3.0 S 6 6 3 3 1015.4 1015.1 0.0
25/02:00am 15.0 13.4 8.7 66 3.2 S 7 9 4 5 1015.4 1015.1 0.0
25/01:30am 15.0 13.2 8.0 63 3.5 SSW 7 11 4 6 1015.2 1014.9 0.0
25/01:00am 16.1 13.2 8.3 60 4.0 SSW 13 17 7 9 1015.2 1014.9 0.0
25/12:30am 16.8 13.5 8.2 57 4.4 SW 15 19 8 10 1014.9 1014.6 0.0
25/12:00am 17.0 14.0 7.6 54 4.7 SW 13 17 7 9 1014.7 1014.4 0.0
 
Date/Time
EDT
Temp
°C
App
Temp
°C
Dew
Point
°C
Rel
Hum
%
Delta-T
°C
Wind Press
QNH
hPa
Press
MSL
hPa
Rain since
9am
mm
Dir  Spd
km/h
Gust
km/h
Spd
kts
Gust
kts
24/11:30pm 16.5 13.4 7.2 54 4.6 SW 13 15 7 8 1014.5 1014.2 0.0
24/11:00pm 16.7 13.7 6.2 50 5.1 SSW 11 11 6 6 1014.4 1014.1 0.0
24/10:30pm 18.0 16.0 7.1 49 5.5 S 7 7 4 4 1014.2 1013.9 0.0
24/10:00pm 18.4 16.3 6.6 46 5.9 SSW 7 9 4 5 1014.0 1013.7 0.0
24/09:30pm 19.4 17.0 6.8 44 6.4 SSW 9 11 5 6 1013.7 1013.4 0.0
24/09:00pm 21.1 18.7 7.0 40 7.2 SSW 9 11 5 6 1013.4 1013.1 0.0
24/08:30pm 22.6 19.1 7.2 37 8.0 SW 15 20 8 11 1013.2 1012.9 0.0
24/08:00pm 23.6 19.4 7.3 35 8.5 SW 19 24 10 13 1013.0 1012.7 0.0

Other formats

Comma delimited format used in spreadsheet applications
http://www.bom.gov.au/fwo/IDV60801/IDV60801.94838.axf

JavaScript Object Notation format (JSON) in row-major order
http://www.bom.gov.au/fwo/IDV60801/IDV60801.94838.json

Data quality

Most of these data are generated automatically and are frequently updated. Quality checks on data are not normally performed. It is possible for incorrect values to appear. Refer to information at About Latest Weather Observations and please check the disclaimer before using these data.